createdAt,value
2019-03-18T00:00:30.975Z,92.00
2019-03-18T00:03:00.678Z,92.00
2019-03-18T00:05:30.211Z,92.00
2019-03-18T00:07:59.484Z,92.10
2019-03-18T00:10:28.753Z,92.10
2019-03-18T00:12:58.086Z,92.10
2019-03-18T00:15:27.379Z,92.20
2019-03-18T00:17:56.697Z,92.10
2019-03-18T00:20:25.970Z,92.20
2019-03-18T00:22:55.247Z,92.20
2019-03-18T00:25:24.501Z,92.60
2019-03-18T00:27:53.772Z,92.30
2019-03-18T00:30:23.054Z,92.30
2019-03-18T00:32:52.316Z,92.30
2019-03-18T00:35:21.598Z,92.30
2019-03-18T00:37:50.858Z,92.40
2019-03-18T00:40:20.888Z,92.40
2019-03-18T00:42:51.118Z,92.30
2019-03-18T00:45:20.404Z,92.50
2019-03-18T00:47:49.664Z,92.50
2019-03-18T00:50:18.934Z,92.60
2019-03-18T00:52:48.273Z,92.70
2019-03-18T00:55:17.542Z,92.60
2019-03-18T00:57:46.801Z,92.70
2019-03-18T01:00:19.431Z,92.70
2019-03-18T01:02:50.121Z,93.00
2019-03-18T01:05:19.588Z,92.60
2019-03-18T01:07:48.852Z,92.60
2019-03-18T01:10:18.378Z,92.60
2019-03-18T01:12:47.644Z,92.50
2019-03-18T01:15:27.318Z,92.60
2019-03-18T01:17:48.976Z,92.60
2019-03-18T01:20:18.333Z,92.60
2019-03-18T01:22:47.604Z,92.60
2019-03-18T01:25:16.874Z,92.40
2019-03-18T01:27:46.146Z,92.50
2019-03-18T01:30:15.480Z,92.40
2019-03-18T01:32:44.747Z,92.40
2019-03-18T01:35:14.014Z,92.30
2019-03-18T01:37:43.284Z,92.30
2019-03-18T01:40:15.947Z,92.40
2019-03-18T01:42:45.226Z,92.30
2019-03-18T01:45:14.484Z,92.30
2019-03-18T01:47:43.779Z,92.30
2019-03-18T01:50:14.385Z,92.70
2019-03-18T01:52:43.732Z,92.30
2019-03-18T01:55:13.059Z,92.30
2019-03-18T01:57:42.328Z,92.40
2019-03-18T02:00:15.439Z,92.30
2019-03-18T02:02:44.707Z,92.30
2019-03-18T02:05:13.971Z,92.30
2019-03-18T02:07:43.242Z,92.30
2019-03-18T02:10:14.513Z,92.30
2019-03-18T02:12:43.781Z,92.30
2019-03-18T02:15:16.016Z,92.30
2019-03-18T02:17:45.281Z,92.30
2019-03-18T02:20:15.484Z,92.30
2019-03-18T02:22:44.761Z,92.30
2019-03-18T02:25:14.023Z,92.30
2019-03-18T02:27:43.292Z,92.30
2019-03-18T02:30:18.089Z,92.30
2019-03-18T02:32:47.402Z,92.30
2019-03-18T02:35:16.793Z,92.30
2019-03-18T02:37:46.363Z,92.30
2019-03-18T02:40:16.714Z,92.30
2019-03-18T02:42:45.985Z,92.30
2019-03-18T02:45:16.320Z,92.30
2019-03-18T02:47:45.585Z,92.30
2019-03-18T02:50:14.841Z,92.30
2019-03-18T02:52:44.114Z,92.30
2019-03-18T02:55:13.376Z,92.30
2019-03-18T02:57:42.641Z,92.30
2019-03-18T03:00:13.182Z,92.30
2019-03-18T03:02:42.559Z,92.30
2019-03-18T03:05:12.864Z,92.30
2019-03-18T03:07:42.165Z,92.30
2019-03-18T03:10:13.108Z,92.30
2019-03-18T03:12:42.372Z,92.30
2019-03-18T03:15:13.636Z,92.30
2019-03-18T03:17:42.902Z,92.40
2019-03-18T03:20:12.310Z,92.30
2019-03-18T03:22:41.579Z,92.30
2019-03-18T03:25:11.301Z,92.30
2019-03-18T03:27:40.562Z,92.30
2019-03-18T03:30:16.542Z,92.30
2019-03-18T03:32:45.867Z,92.30
2019-03-18T03:35:15.157Z,92.30
2019-03-18T03:37:44.475Z,92.30
2019-03-18T03:40:13.822Z,92.40
2019-03-18T03:42:43.239Z,92.30
2019-03-18T03:45:14.541Z,92.30
2019-03-18T03:47:43.810Z,92.30
2019-03-18T03:50:14.126Z,92.30
2019-03-18T03:52:43.395Z,92.30
2019-03-18T03:55:13.506Z,92.30
2019-03-18T03:57:42.824Z,92.30
2019-03-18T04:00:13.712Z,92.30
2019-03-18T04:02:43.058Z,92.30
2019-03-18T04:05:12.459Z,92.30
2019-03-18T04:07:41.764Z,92.30
2019-03-18T04:10:14.999Z,92.40
2019-03-18T04:12:45.256Z,92.40
2019-03-18T04:15:16.155Z,92.50
2019-03-18T04:17:45.433Z,92.50
2019-03-18T04:20:16.586Z,92.60
2019-03-18T04:22:45.930Z,92.90
2019-03-18T04:25:15.287Z,93.30
2019-03-18T04:27:44.683Z,93.50
2019-03-18T04:30:15.266Z,93.70
2019-03-18T04:32:44.597Z,93.70
2019-03-18T04:35:13.858Z,94.00
2019-03-18T04:37:43.128Z,94.00
2019-03-18T04:40:14.937Z,94.00
2019-03-18T04:42:44.216Z,94.30
2019-03-18T04:45:13.548Z,94.40
2019-03-18T04:47:42.822Z,94.40
2019-03-18T04:50:12.812Z,94.50
2019-03-18T04:52:42.089Z,94.80
2019-03-18T04:55:11.355Z,94.90
2019-03-18T04:57:40.634Z,94.90
2019-03-18T05:00:13.927Z,94.90
2019-03-18T05:02:43.201Z,95.10
2019-03-18T05:05:12.479Z,95.20
2019-03-18T05:07:41.745Z,95.20
2019-03-18T05:10:11.658Z,95.30
2019-03-18T05:12:40.926Z,95.30
2019-03-18T05:15:10.831Z,94.90
2019-03-18T05:17:40.114Z,95.20
2019-03-18T05:20:10.816Z,95.20
2019-03-18T05:22:40.087Z,95.20
2019-03-18T05:25:10.098Z,95.30
2019-03-18T05:27:39.388Z,95.30
2019-03-18T05:30:13.345Z,95.40
2019-03-18T05:32:42.615Z,95.40
2019-03-18T05:35:11.877Z,95.40
2019-03-18T05:37:41.143Z,95.30
2019-03-18T05:40:10.557Z,95.40
2019-03-18T05:42:39.820Z,95.30
2019-03-18T05:45:10.729Z,95.30
2019-03-18T05:47:40.293Z,95.30
2019-03-18T05:50:11.557Z,95.30
2019-03-18T05:52:40.839Z,95.30
2019-03-18T05:55:10.283Z,95.30
2019-03-18T05:57:39.564Z,95.30
2019-03-18T06:00:11.170Z,95.20
2019-03-18T06:02:40.454Z,95.30
2019-03-18T06:05:09.784Z,95.20
2019-03-18T06:07:39.099Z,95.20
2019-03-18T06:10:10.712Z,95.20
2019-03-18T06:12:39.968Z,95.20
2019-03-18T06:15:10.890Z,95.10
2019-03-18T06:17:51.621Z,95.10
2019-03-18T06:20:12.057Z,95.10
2019-03-18T06:22:41.320Z,95.10
2019-03-18T06:25:10.599Z,95.00
2019-03-18T06:27:39.949Z,95.00
2019-03-18T06:30:16.405Z,95.00
2019-03-18T06:32:45.673Z,95.00
2019-03-18T06:35:14.986Z,95.00
2019-03-18T06:37:44.298Z,94.90
2019-03-18T06:40:16.335Z,94.90
2019-03-18T06:42:45.607Z,94.90
2019-03-18T06:45:14.954Z,94.90
2019-03-18T06:47:44.218Z,95.00
2019-03-18T06:50:13.866Z,94.90
2019-03-18T06:52:43.208Z,94.90
2019-03-18T06:55:12.559Z,94.90
2019-03-18T06:57:41.828Z,94.90
2019-03-18T07:00:13.818Z,94.80
2019-03-18T07:02:43.080Z,94.90
2019-03-18T07:05:12.424Z,94.80
2019-03-18T07:07:41.684Z,94.70
2019-03-18T07:10:12.597Z,94.60
2019-03-18T07:12:41.856Z,94.60
2019-03-18T07:15:11.486Z,94.60
2019-03-18T07:17:40.744Z,94.60
2019-03-18T07:20:13.239Z,94.70
2019-03-18T07:22:42.555Z,94.60
2019-03-18T07:25:11.968Z,94.60
2019-03-18T07:27:41.241Z,94.60
2019-03-18T07:30:12.345Z,94.50
2019-03-18T07:32:41.619Z,94.60
2019-03-18T07:35:10.880Z,94.50
2019-03-18T07:37:40.148Z,94.50
2019-03-18T07:40:13.589Z,94.50
2019-03-18T07:42:42.925Z,94.40
2019-03-18T07:45:15.872Z,94.40
2019-03-18T07:47:44.492Z,94.30
2019-03-18T07:50:14.807Z,94.30
2019-03-18T07:52:44.145Z,94.30
2019-03-18T07:55:14.506Z,94.30
2019-03-18T07:57:43.755Z,94.30
2019-03-18T08:00:15.336Z,94.40
2019-03-18T08:02:44.592Z,94.40
2019-03-18T08:05:13.865Z,94.30
2019-03-18T08:07:43.136Z,94.30
2019-03-18T08:10:13.537Z,94.20
2019-03-18T08:12:42.813Z,94.20
2019-03-18T08:15:12.824Z,94.20
2019-03-18T08:17:42.093Z,94.20
2019-03-18T08:20:12.082Z,94.00
2019-03-18T08:22:41.353Z,93.90
2019-03-18T08:25:11.752Z,94.00
2019-03-18T08:27:41.013Z,93.60
2019-03-18T08:30:12.597Z,93.50
2019-03-18T08:32:41.871Z,93.20
2019-03-18T08:35:11.136Z,93.60
2019-03-18T08:37:40.417Z,93.40
2019-03-18T08:40:11.314Z,92.80
2019-03-18T08:42:40.585Z,92.70
2019-03-18T08:45:11.188Z,92.60
2019-03-18T08:47:40.639Z,92.20
2019-03-18T08:50:12.417Z,92.20
2019-03-18T08:52:42.123Z,92.30
2019-03-18T08:55:11.733Z,92.00
2019-03-18T08:57:41.017Z,92.20
2019-03-18T09:00:17.981Z,92.20
2019-03-18T09:02:47.248Z,91.60
2019-03-18T09:05:16.510Z,91.20
2019-03-18T09:07:45.791Z,91.30
2019-03-18T09:10:16.112Z,90.90
2019-03-18T09:12:45.451Z,90.90
2019-03-18T09:15:14.886Z,90.80
2019-03-18T09:17:44.247Z,90.30
2019-03-18T09:20:19.938Z,89.10
2019-03-18T09:22:49.228Z,89.20
2019-03-18T09:25:18.631Z,89.00
2019-03-18T09:27:47.914Z,89.60
2019-03-18T09:30:18.981Z,89.90
2019-03-18T09:32:48.254Z,88.70
2019-03-18T09:35:17.524Z,88.70
2019-03-18T09:37:46.788Z,87.80
2019-03-18T09:40:16.738Z,88.00
2019-03-18T09:42:46.012Z,87.10
2019-03-18T09:45:16.416Z,86.00
2019-03-18T09:47:45.685Z,85.90
2019-03-18T09:50:16.186Z,86.20
2019-03-18T09:52:45.458Z,86.00
2019-03-18T09:55:14.725Z,86.00
2019-03-18T09:57:44.005Z,84.70
2019-03-18T10:00:20.008Z,84.50
2019-03-18T10:02:49.289Z,84.60
2019-03-18T10:05:18.550Z,82.70
2019-03-18T10:07:47.817Z,81.70
2019-03-18T10:10:17.105Z,81.60
2019-03-18T10:12:46.381Z,82.20
2019-03-18T10:15:19.778Z,83.10
2019-03-18T10:17:49.066Z,83.00
2019-03-18T10:20:18.338Z,82.20
2019-03-18T10:22:47.626Z,82.20
2019-03-18T10:25:16.872Z,81.80
2019-03-18T10:27:46.145Z,80.70
2019-03-18T10:30:16.143Z,79.50
2019-03-18T10:32:45.416Z,78.40
2019-03-18T10:35:14.684Z,77.50
2019-03-18T10:37:43.957Z,76.60
2019-03-18T10:40:14.068Z,76.00
2019-03-18T10:42:43.333Z,75.80
2019-03-18T10:45:13.436Z,75.00
2019-03-18T10:47:42.724Z,74.70
2019-03-18T10:50:18.533Z,74.10
2019-03-18T10:52:47.801Z,73.90
2019-03-18T10:55:17.060Z,74.10
2019-03-18T10:57:47.406Z,71.70
2019-03-18T11:00:20.175Z,72.20
2019-03-18T11:02:49.446Z,72.60
2019-03-18T11:05:18.723Z,71.40
2019-03-18T11:07:51.576Z,70.20
2019-03-18T11:10:20.900Z,71.20
2019-03-18T11:12:50.177Z,71.80
2019-03-18T11:15:20.897Z,72.90
2019-03-18T11:17:50.165Z,71.80
2019-03-18T11:20:19.434Z,72.70
2019-03-18T11:22:48.706Z,73.50
2019-03-18T11:25:17.977Z,74.50
2019-03-18T11:27:47.236Z,73.80
2019-03-18T11:30:18.519Z,72.70
2019-03-18T11:32:47.784Z,72.70
2019-03-18T11:35:17.066Z,71.60
2019-03-18T11:37:47.410Z,70.80
2019-03-18T11:40:17.733Z,71.30
2019-03-18T11:42:47.066Z,69.90
2019-03-18T11:45:17.097Z,69.70
2019-03-18T11:47:46.408Z,68.90
2019-03-18T11:50:17.881Z,68.10
2019-03-18T11:52:47.214Z,69.20
2019-03-18T11:55:23.471Z,70.50
2019-03-18T11:57:52.731Z,73.80
2019-03-18T12:00:25.807Z,76.90
2019-03-18T12:02:55.132Z,78.80
2019-03-18T12:05:26.611Z,80.50
2019-03-18T12:07:55.881Z,82.70
2019-03-18T12:10:26.083Z,84.10
2019-03-18T12:12:55.640Z,85.00
2019-03-18T12:15:26.200Z,85.50
2019-03-18T12:17:55.490Z,85.00
2019-03-18T12:20:25.748Z,84.80
2019-03-18T12:22:55.309Z,84.10
2019-03-18T12:25:24.571Z,84.70
2019-03-18T12:27:53.831Z,83.10
2019-03-18T12:30:24.042Z,82.50
2019-03-18T12:32:53.317Z,82.00
2019-03-18T12:35:22.589Z,82.20
2019-03-18T12:37:52.024Z,81.60
2019-03-18T12:40:21.296Z,80.90
2019-03-18T12:42:50.556Z,79.80
2019-03-18T12:45:21.740Z,78.30
2019-03-18T12:47:51.006Z,78.20
2019-03-18T12:50:55.302Z,77.60
2019-03-18T12:52:54.865Z,77.00
2019-03-18T12:55:24.145Z,76.60
2019-03-18T12:57:53.405Z,72.90
2019-03-18T13:00:35.797Z,72.60
2019-03-18T13:03:05.205Z,71.30
2019-03-18T13:05:34.478Z,69.10
2019-03-18T13:08:04.014Z,67.50
2019-03-18T13:10:33.288Z,67.70
2019-03-18T13:13:02.547Z,66.00
2019-03-18T13:15:32.117Z,64.10
2019-03-18T13:18:01.385Z,65.90
2019-03-18T13:20:30.639Z,64.60
2019-03-18T13:22:59.924Z,67.20
2019-03-18T13:25:29.200Z,68.30
2019-03-18T13:27:58.530Z,68.10
2019-03-18T13:30:27.789Z,69.40
2019-03-18T13:32:57.066Z,70.90
2019-03-18T13:35:26.337Z,70.90
2019-03-18T13:37:55.624Z,71.90
2019-03-18T13:40:24.889Z,72.10
2019-03-18T13:42:54.165Z,72.40
2019-03-18T13:45:23.968Z,73.70
2019-03-18T13:47:53.330Z,72.90
2019-03-18T13:50:22.844Z,72.90
2019-03-18T13:52:53.099Z,72.90
2019-03-18T13:55:22.364Z,72.30
2019-03-18T13:57:51.640Z,72.40
2019-03-18T14:00:22.511Z,73.10
2019-03-18T14:02:51.785Z,73.30
2019-03-18T14:05:21.060Z,73.90
2019-03-18T14:08:00.140Z,74.90
2019-03-18T14:10:22.901Z,75.80
2019-03-18T14:12:52.306Z,75.40
2019-03-18T14:15:23.858Z,75.60
2019-03-18T14:17:53.201Z,74.60
2019-03-18T14:20:31.381Z,73.90
2019-03-18T14:23:00.650Z,73.80
2019-03-18T14:25:29.920Z,74.30
2019-03-18T14:27:59.189Z,74.50
2019-03-18T14:30:28.449Z,74.10
2019-03-18T14:32:57.728Z,72.70
2019-03-18T14:35:27.008Z,69.70
2019-03-18T14:37:56.276Z,69.20
2019-03-18T14:40:25.826Z,67.70
2019-03-18T14:42:55.112Z,63.90
2019-03-18T14:45:24.742Z,59.90
2019-03-18T14:47:54.974Z,58.80
2019-03-18T14:50:24.237Z,53.40
2019-03-18T14:52:53.527Z,54.70
2019-03-18T14:55:22.782Z,51.80
2019-03-18T14:57:52.070Z,51.20
2019-03-18T15:00:25.876Z,50.40
2019-03-18T15:02:55.161Z,49.00
2019-03-18T15:05:24.505Z,49.70
2019-03-18T15:07:53.789Z,49.10
2019-03-18T15:10:30.194Z,48.60
2019-03-18T15:12:59.464Z,48.80
2019-03-18T15:15:28.731Z,50.20
2019-03-18T15:17:58.009Z,50.50
2019-03-18T15:20:28.112Z,52.10
2019-03-18T15:22:57.396Z,52.10
2019-03-18T15:25:34.369Z,52.00
2019-03-18T15:28:03.718Z,51.60
2019-03-18T15:30:35.668Z,52.70
2019-03-18T15:33:05.029Z,54.30
2019-03-18T15:35:34.291Z,55.50
2019-03-18T15:38:03.585Z,56.50
2019-03-18T15:40:32.857Z,57.50
2019-03-18T15:43:02.141Z,58.20
2019-03-18T15:45:31.438Z,59.00
2019-03-18T15:48:01.179Z,59.70
2019-03-18T15:50:30.474Z,60.70
2019-03-18T15:52:59.805Z,61.90
2019-03-18T15:55:29.077Z,60.80
2019-03-18T15:57:58.343Z,60.70
2019-03-18T16:00:30.024Z,60.00
2019-03-18T16:02:59.862Z,59.20
2019-03-18T16:05:29.224Z,59.60
2019-03-18T16:07:58.483Z,59.70
2019-03-18T16:10:27.767Z,59.30
2019-03-18T16:12:57.034Z,59.20
2019-03-18T16:15:26.323Z,59.50
2019-03-18T16:17:55.593Z,60.00
2019-03-18T16:20:25.856Z,60.20
2019-03-18T16:22:55.095Z,60.00
2019-03-18T16:25:24.380Z,59.90
2019-03-18T16:27:53.661Z,58.00
2019-03-18T16:30:23.097Z,57.00
2019-03-18T16:32:52.363Z,57.00
2019-03-18T16:35:21.692Z,57.10
2019-03-18T16:37:51.291Z,57.20
2019-03-18T16:40:22.745Z,57.50
2019-03-18T16:42:52.036Z,57.90
2019-03-18T16:45:22.374Z,58.70
2019-03-18T16:47:51.647Z,58.80
2019-03-18T16:50:33.003Z,58.60
2019-03-18T16:53:02.278Z,58.40
2019-03-18T16:55:31.546Z,58.80
2019-03-18T16:58:00.800Z,58.40
2019-03-18T17:00:30.078Z,58.80
2019-03-18T17:05:19.204Z,59.10
2019-03-18T17:07:48.625Z,58.70
2019-03-18T17:10:17.979Z,59.40
2019-03-18T17:12:47.326Z,59.50
2019-03-18T17:15:20.501Z,60.10
2019-03-18T17:17:49.778Z,60.40
2019-03-18T17:20:19.068Z,60.30
2019-03-18T17:22:49.997Z,60.70
2019-03-18T17:25:22.591Z,61.30
2019-03-18T17:27:51.886Z,61.50
2019-03-18T17:30:21.437Z,61.50
2019-03-18T17:32:50.700Z,61.30
2019-03-18T17:35:20.025Z,60.90
2019-03-18T17:37:49.354Z,60.90
2019-03-18T17:40:19.763Z,61.30
2019-03-18T17:42:49.053Z,61.90
2019-03-18T17:45:18.759Z,62.50
2019-03-18T17:47:48.058Z,62.90
2019-03-18T17:50:21.981Z,63.20
2019-03-18T17:53:01.763Z,63.50
2019-03-18T17:55:22.218Z,63.70
2019-03-18T17:57:51.490Z,64.00
2019-03-18T18:00:25.150Z,64.20
2019-03-18T18:02:54.431Z,64.50
2019-03-18T18:05:23.708Z,64.80
2019-03-18T18:07:53.005Z,65.20
2019-03-18T18:10:22.284Z,65.70
2019-03-18T18:12:51.558Z,66.00
2019-03-18T18:15:20.916Z,66.40
2019-03-18T18:17:50.197Z,66.80
2019-03-18T18:20:19.468Z,67.40
2019-03-18T18:22:48.757Z,67.60
2019-03-18T18:25:18.024Z,67.90
2019-03-18T18:27:47.306Z,68.20
2019-03-18T18:30:17.623Z,68.60
2019-03-18T18:32:47.020Z,68.80
2019-03-18T18:35:16.308Z,69.20
2019-03-18T18:37:45.601Z,70.30
2019-03-18T18:40:23.205Z,69.60
2019-03-18T18:42:52.553Z,69.90
2019-03-18T18:45:21.921Z,70.20
2019-03-18T18:47:51.237Z,70.40
2019-03-18T18:50:20.525Z,70.70
2019-03-18T18:52:49.815Z,70.90
2019-03-18T18:55:20.083Z,71.30
2019-03-18T18:57:49.428Z,71.50
2019-03-18T19:00:20.052Z,71.80
2019-03-18T19:02:49.384Z,71.90
2019-03-18T19:05:19.212Z,72.20
2019-03-18T19:07:48.477Z,72.30
2019-03-18T19:10:19.777Z,72.60
2019-03-18T19:12:50.088Z,72.90
2019-03-18T19:15:26.179Z,73.10
2019-03-18T19:17:55.509Z,73.40
2019-03-18T19:20:24.817Z,73.50
2019-03-18T19:22:54.150Z,74.60
2019-03-18T19:25:23.452Z,74.00
2019-03-18T19:27:52.800Z,74.20
2019-03-18T19:30:22.958Z,74.50
2019-03-18T19:32:52.504Z,74.80
2019-03-18T19:35:21.843Z,75.00
2019-03-18T19:37:51.200Z,75.20
2019-03-18T19:40:24.306Z,75.60
2019-03-18T19:42:53.592Z,75.70
2019-03-18T19:45:22.926Z,75.70
2019-03-18T19:47:53.448Z,76.00
2019-03-18T19:50:25.184Z,76.10
2019-03-18T19:52:54.472Z,76.40
2019-03-18T19:55:23.738Z,76.60
2019-03-18T19:57:53.052Z,77.00
2019-03-18T20:00:29.447Z,77.00
2019-03-18T20:02:58.766Z,77.20
2019-03-18T20:05:28.067Z,77.30
2019-03-18T20:07:57.410Z,77.50
2019-03-18T20:10:26.753Z,77.70
2019-03-18T20:12:56.077Z,77.80
2019-03-18T20:15:25.365Z,78.00
2019-03-18T20:17:54.634Z,78.20
2019-03-18T20:20:24.291Z,78.40
2019-03-18T20:22:53.576Z,78.70
2019-03-18T20:25:22.863Z,78.80
2019-03-18T20:27:52.174Z,79.20
2019-03-18T20:30:22.285Z,79.20
2019-03-18T20:32:51.567Z,79.30
2019-03-18T20:35:21.905Z,79.80
2019-03-18T20:37:52.082Z,79.50
2019-03-18T20:40:21.701Z,79.70
2019-03-18T20:42:50.975Z,79.90
2019-03-18T20:45:23.349Z,80.00
2019-03-18T20:47:52.729Z,80.30
2019-03-18T20:50:24.197Z,80.50
2019-03-18T20:52:53.610Z,80.50
2019-03-18T20:55:22.885Z,80.70
2019-03-18T20:57:52.160Z,80.90
2019-03-18T21:00:25.301Z,81.10
2019-03-18T21:02:54.563Z,81.20
2019-03-18T21:05:25.111Z,81.30
2019-03-18T21:07:55.869Z,81.40
2019-03-18T21:10:25.144Z,81.50
2019-03-18T21:12:54.407Z,81.60
2019-03-18T21:15:23.684Z,81.70
2019-03-18T21:17:52.946Z,81.60
2019-03-18T21:20:29.501Z,81.60
2019-03-18T21:22:58.771Z,81.70
2019-03-18T21:25:28.049Z,81.80
2019-03-18T21:27:57.330Z,82.10
2019-03-18T21:30:26.618Z,82.30
2019-03-18T21:32:55.983Z,82.40
2019-03-18T21:35:25.238Z,82.80
2019-03-18T21:37:54.519Z,82.90
2019-03-18T21:40:23.797Z,83.20
2019-03-18T21:42:53.056Z,84.00
2019-03-18T21:45:25.368Z,83.50
2019-03-18T21:47:54.653Z,83.60
2019-03-18T21:50:23.911Z,83.90
2019-03-18T21:52:53.181Z,84.10
2019-03-18T21:55:22.454Z,84.30
2019-03-18T21:57:51.720Z,84.50
2019-03-18T22:00:22.037Z,84.80
2019-03-18T22:02:51.344Z,85.00
2019-03-18T22:05:20.642Z,85.10
2019-03-18T22:07:49.917Z,85.20
2019-03-18T22:10:22.396Z,85.50
2019-03-18T22:12:51.657Z,85.60
2019-03-18T22:15:21.089Z,86.30
2019-03-18T22:17:50.373Z,85.90
2019-03-18T22:20:20.170Z,86.20
2019-03-18T22:22:49.439Z,86.40
2019-03-18T22:25:18.711Z,86.60
2019-03-18T22:27:47.994Z,86.70
2019-03-18T22:30:18.873Z,86.90
2019-03-18T22:32:48.221Z,86.90
2019-03-18T22:35:17.490Z,87.00
2019-03-18T22:37:46.759Z,87.20
2019-03-18T22:40:16.879Z,87.40
2019-03-18T22:42:46.155Z,87.60
2019-03-18T22:45:18.254Z,88.50
2019-03-18T22:47:47.534Z,88.00
2019-03-18T22:50:17.454Z,88.20
2019-03-18T22:52:46.726Z,88.30
2019-03-18T22:55:15.983Z,88.40
2019-03-18T22:57:45.261Z,88.50
2019-03-18T23:00:30.877Z,88.70
2019-03-18T23:03:01.776Z,89.00
2019-03-18T23:05:31.052Z,89.00
2019-03-18T23:08:00.327Z,89.10
2019-03-18T23:10:29.610Z,89.40
2019-03-18T23:12:58.888Z,89.60
2019-03-18T23:15:28.159Z,89.80
2019-03-18T23:17:57.428Z,89.90
2019-03-18T23:20:26.695Z,90.00
2019-03-18T23:22:55.973Z,90.00
2019-03-18T23:25:25.241Z,90.10
2019-03-18T23:27:54.523Z,90.20
2019-03-18T23:30:24.253Z,90.20
2019-03-18T23:32:53.530Z,90.20
2019-03-18T23:35:22.791Z,90.30
2019-03-18T23:37:52.073Z,90.30
2019-03-18T23:40:21.335Z,90.40
2019-03-18T23:42:50.615Z,90.50
2019-03-18T23:45:19.881Z,90.50
2019-03-18T23:47:49.150Z,90.60
2019-03-18T23:50:18.417Z,90.70
2019-03-18T23:52:47.700Z,90.70
2019-03-18T23:55:19.562Z,90.80
2019-03-18T23:57:47.929Z,91.00
